sensor_id;sensor_type;location;lat;lon;timestamp;temperature;humidity
19906;DHT22;10115;50.906;4.438;2022-11-14T00:00:58;5.70;99.90
19906;DHT22;10115;50.906;4.438;2022-11-14T00:03:23;5.70;99.90
19906;DHT22;10115;50.906;4.438;2022-11-14T00:05:49;5.80;99.90
19906;DHT22;10115;50.906;4.438;2022-11-14T00:08:18;5.60;99.90
19906;DHT22;10115;50.906;4.438;2022-11-14T00:10:45;5.50;99.90
19906;DHT22;10115;50.906;4.438;2022-11-14T00:13:12;5.50;99.90
19906;DHT22;10115;50.906;4.438;2022-11-14T00:15:38;5.40;99.90
19906;DHT22;10115;50.906;4.438;2022-11-14T00:18:07;5.40;99.90
19906;DHT22;10115;50.906;4.438;2022-11-14T00:20:36;5.40;99.90
19906;DHT22;10115;50.906;4.438;2022-11-14T00:23:04;5.40;99.90
19906;DHT22;10115;50.906;4.438;2022-11-14T00:25:30;5.40;99.90
19906;DHT22;10115;50.906;4.438;2022-11-14T00:27:59;5.30;99.90
19906;DHT22;10115;50.906;4.438;2022-11-14T00:30:37;5.20;99.90
19906;DHT22;10115;50.906;4.438;2022-11-14T00:33:08;5.20;99.90
19906;DHT22;10115;50.906;4.438;2022-11-14T00:35:34;5.20;99.90
19906;DHT22;10115;50.906;4.438;2022-11-14T00:38:00;5.20;99.90
19906;DHT22;10115;50.906;4.438;2022-11-14T00:40:31;5.20;99.90
19906;DHT22;10115;50.906;4.438;2022-11-14T00:43:00;5.30;99.90
19906;DHT22;10115;50.906;4.438;2022-11-14T00:45:25;5.30;99.90
19906;DHT22;10115;50.906;4.438;2022-11-14T00:47:53;5.30;99.90
19906;DHT22;10115;50.906;4.438;2022-11-14T00:50:19;5.30;99.90
19906;DHT22;10115;50.906;4.438;2022-11-14T00:52:45;5.30;99.90
19906;DHT22;10115;50.906;4.438;2022-11-14T00:55:10;5.30;99.90
19906;DHT22;10115;50.906;4.438;2022-11-14T00:57:36;5.40;99.90
19906;DHT22;10115;50.906;4.438;2022-11-14T01:00:05;5.30;99.90
19906;DHT22;10115;50.906;4.438;2022-11-14T01:02:33;5.30;99.90
19906;DHT22;10115;50.906;4.438;2022-11-14T01:05:02;5.30;99.90
19906;DHT22;10115;50.906;4.438;2022-11-14T01:07:28;5.40;99.90
19906;DHT22;10115;50.906;4.438;2022-11-14T01:09:54;5.40;99.90
19906;DHT22;10115;50.906;4.438;2022-11-14T01:12:19;5.30;99.90
19906;DHT22;10115;50.906;4.438;2022-11-14T01:14:48;5.40;99.90
19906;DHT22;10115;50.906;4.438;2022-11-14T01:17:16;5.40;99.90
19906;DHT22;10115;50.906;4.438;2022-11-14T01:19:42;5.30;99.90
19906;DHT22;10115;50.906;4.438;2022-11-14T01:22:11;5.40;99.90
19906;DHT22;10115;50.906;4.438;2022-11-14T01:24:36;5.40;99.90
19906;DHT22;10115;50.906;4.438;2022-11-14T01:27:02;5.40;99.90
19906;DHT22;10115;50.906;4.438;2022-11-14T01:29:31;5.40;99.90
19906;DHT22;10115;50.906;4.438;2022-11-14T01:31:59;5.50;99.90
19906;DHT22;10115;50.906;4.438;2022-11-14T01:34:25;5.40;99.90
19906;DHT22;10115;50.906;4.438;2022-11-14T01:36:51;5.30;99.90
19906;DHT22;10115;50.906;4.438;2022-11-14T01:39:16;5.30;99.90
19906;DHT22;10115;50.906;4.438;2022-11-14T01:41:42;5.20;99.90
19906;DHT22;10115;50.906;4.438;2022-11-14T01:44:36;5.20;99.90
19906;DHT22;10115;50.906;4.438;2022-11-14T01:47:03;5.00;99.90
19906;DHT22;10115;50.906;4.438;2022-11-14T01:49:37;5.00;99.90
19906;DHT22;10115;50.906;4.438;2022-11-14T01:52:09;5.00;99.90
19906;DHT22;10115;50.906;4.438;2022-11-14T01:54:44;4.90;99.90
19906;DHT22;10115;50.906;4.438;2022-11-14T01:57:12;5.00;99.90
19906;DHT22;10115;50.906;4.438;2022-11-14T01:59:42;5.00;99.90
19906;DHT22;10115;50.906;4.438;2022-11-14T02:02:20;5.00;99.90
19906;DHT22;10115;50.906;4.438;2022-11-14T02:05:00;5.10;99.90
19906;DHT22;10115;50.906;4.438;2022-11-14T02:07:28;4.90;99.90
19906;DHT22;10115;50.906;4.438;2022-11-14T02:09:56;4.90;99.90
19906;DHT22;10115;50.906;4.438;2022-11-14T02:12:23;4.90;99.90
19906;DHT22;10115;50.906;4.438;2022-11-14T02:14:54;4.90;99.90
19906;DHT22;10115;50.906;4.438;2022-11-14T02:17:21;4.80;99.90
19906;DHT22;10115;50.906;4.438;2022-11-14T02:19:59;4.80;99.90
19906;DHT22;10115;50.906;4.438;2022-11-14T02:22:24;4.80;99.90
19906;DHT22;10115;50.906;4.438;2022-11-14T02:24:53;4.80;99.90
19906;DHT22;10115;50.906;4.438;2022-11-14T02:27:19;4.70;99.90
19906;DHT22;10115;50.906;4.438;2022-11-14T02:29:45;4.70;99.90
19906;DHT22;10115;50.906;4.438;2022-11-14T02:32:11;4.80;99.90
19906;DHT22;10115;50.906;4.438;2022-11-14T02:34:37;4.80;99.90
19906;DHT22;10115;50.906;4.438;2022-11-14T02:37:03;4.80;99.90
19906;DHT22;10115;50.906;4.438;2022-11-14T02:39:32;4.60;99.90
19906;DHT22;10115;50.906;4.438;2022-11-14T02:41:58;4.70;99.90
19906;DHT22;10115;50.906;4.438;2022-11-14T02:44:24;4.70;99.90
19906;DHT22;10115;50.906;4.438;2022-11-14T02:46:53;4.80;99.90
19906;DHT22;10115;50.906;4.438;2022-11-14T02:49:19;4.90;99.90
19906;DHT22;10115;50.906;4.438;2022-11-14T02:51:44;4.80;99.90
19906;DHT22;10115;50.906;4.438;2022-11-14T02:54:10;4.70;99.90
19906;DHT22;10115;50.906;4.438;2022-11-14T02:56:36;4.60;99.90
19906;DHT22;10115;50.906;4.438;2022-11-14T02:59:04;4.60;99.90
19906;DHT22;10115;50.906;4.438;2022-11-14T03:01:30;4.60;99.90
19906;DHT22;10115;50.906;4.438;2022-11-14T03:03:56;4.60;99.90
19906;DHT22;10115;50.906;4.438;2022-11-14T03:06:21;4.60;99.90
19906;DHT22;10115;50.906;4.438;2022-11-14T03:08:47;4.60;99.90
19906;DHT22;10115;50.906;4.438;2022-11-14T03:11:13;4.60;99.90
19906;DHT22;10115;50.906;4.438;2022-11-14T03:13:39;4.70;99.90
19906;DHT22;10115;50.906;4.438;2022-11-14T03:16:10;4.60;99.90
19906;DHT22;10115;50.906;4.438;2022-11-14T03:18:42;4.50;99.90
19906;DHT22;10115;50.906;4.438;2022-11-14T03:21:11;4.30;99.90
19906;DHT22;10115;50.906;4.438;2022-11-14T03:23:37;4.30;99.90
19906;DHT22;10115;50.906;4.438;2022-11-14T03:26:05;4.30;99.90
19906;DHT22;10115;50.906;4.438;2022-11-14T03:28:31;4.40;99.90
19906;DHT22;10115;50.906;4.438;2022-11-14T03:30:57;4.40;99.90
19906;DHT22;10115;50.906;4.438;2022-11-14T03:33:23;4.30;99.90
19906;DHT22;10115;50.906;4.438;2022-11-14T03:35:56;4.30;99.90
19906;DHT22;10115;50.906;4.438;2022-11-14T03:38:21;4.30;99.90
19906;DHT22;10115;50.906;4.438;2022-11-14T03:40:50;4.30;99.90
19906;DHT22;10115;50.906;4.438;2022-11-14T03:43:17;4.30;99.90
19906;DHT22;10115;50.906;4.438;2022-11-14T03:45:43;4.20;99.90
19906;DHT22;10115;50.906;4.438;2022-11-14T03:48:09;4.20;99.90
19906;DHT22;10115;50.906;4.438;2022-11-14T03:50:34;4.10;99.90
19906;DHT22;10115;50.906;4.438;2022-11-14T03:53:00;4.00;99.90
19906;DHT22;10115;50.906;4.438;2022-11-14T03:55:26;4.10;99.90
19906;DHT22;10115;50.906;4.438;2022-11-14T03:57:51;4.10;99.90
19906;DHT22;10115;50.906;4.438;2022-11-14T04:00:17;4.20;99.90
19906;DHT22;10115;50.906;4.438;2022-11-14T04:02:43;4.10;99.90
19906;DHT22;10115;50.906;4.438;2022-11-14T04:05:09;4.10;99.90
19906;DHT22;10115;50.906;4.438;2022-11-14T04:07:35;4.10;99.90
19906;DHT22;10115;50.906;4.438;2022-11-14T04:10:01;4.10;99.90
19906;DHT22;10115;50.906;4.438;2022-11-14T04:12:29;4.20;99.90
19906;DHT22;10115;50.906;4.438;2022-11-14T04:14:54;4.20;99.90
19906;DHT22;10115;50.906;4.438;2022-11-14T04:17:20;4.20;99.90
19906;DHT22;10115;50.906;4.438;2022-11-14T04:19:46;4.20;99.90
19906;DHT22;10115;50.906;4.438;2022-11-14T04:22:11;4.10;99.90
19906;DHT22;10115;50.906;4.438;2022-11-14T04:24:40;4.10;99.90
19906;DHT22;10115;50.906;4.438;2022-11-14T04:27:05;4.10;99.90
19906;DHT22;10115;50.906;4.438;2022-11-14T04:29:31;4.00;99.90
19906;DHT22;10115;50.906;4.438;2022-11-14T04:31:56;3.90;99.90
19906;DHT22;10115;50.906;4.438;2022-11-14T04:34:22;4.00;99.90
19906;DHT22;10115;50.906;4.438;2022-11-14T04:36:48;4.00;99.90
19906;DHT22;10115;50.906;4.438;2022-11-14T04:39:18;3.90;99.90
19906;DHT22;10115;50.906;4.438;2022-11-14T04:41:44;3.90;99.90
19906;DHT22;10115;50.906;4.438;2022-11-14T04:44:10;3.80;99.90
19906;DHT22;10115;50.906;4.438;2022-11-14T04:46:36;3.80;99.90
19906;DHT22;10115;50.906;4.438;2022-11-14T04:49:04;3.80;99.90
19906;DHT22;10115;50.906;4.438;2022-11-14T04:51:39;3.80;99.90
19906;DHT22;10115;50.906;4.438;2022-11-14T04:54:05;3.90;99.90
19906;DHT22;10115;50.906;4.438;2022-11-14T04:56:30;4.00;99.90
19906;DHT22;10115;50.906;4.438;2022-11-14T04:58:56;3.90;99.90
19906;DHT22;10115;50.906;4.438;2022-11-14T05:01:21;3.80;99.90
19906;DHT22;10115;50.906;4.438;2022-11-14T05:03:47;3.70;99.90
19906;DHT22;10115;50.906;4.438;2022-11-14T05:06:16;3.50;99.90
19906;DHT22;10115;50.906;4.438;2022-11-14T05:08:41;3.40;99.90
19906;DHT22;10115;50.906;4.438;2022-11-14T05:11:18;3.40;99.90
19906;DHT22;10115;50.906;4.438;2022-11-14T05:13:44;3.30;99.90
19906;DHT22;10115;50.906;4.438;2022-11-14T05:16:09;3.30;99.90
19906;DHT22;10115;50.906;4.438;2022-11-14T05:18:36;3.40;99.90
19906;DHT22;10115;50.906;4.438;2022-11-14T05:21:02;3.50;99.90
19906;DHT22;10115;50.906;4.438;2022-11-14T05:23:28;3.50;99.90
19906;DHT22;10115;50.906;4.438;2022-11-14T05:26:00;3.50;99.90
19906;DHT22;10115;50.906;4.438;2022-11-14T05:28:27;3.50;99.90
19906;DHT22;10115;50.906;4.438;2022-11-14T05:30:58;3.50;99.90
19906;DHT22;10115;50.906;4.438;2022-11-14T05:33:27;3.50;99.90
19906;DHT22;10115;50.906;4.438;2022-11-14T05:36:00;3.50;99.90
19906;DHT22;10115;50.906;4.438;2022-11-14T05:38:26;3.60;99.90
19906;DHT22;10115;50.906;4.438;2022-11-14T05:40:52;3.60;99.90
19906;DHT22;10115;50.906;4.438;2022-11-14T05:43:18;3.60;99.90
19906;DHT22;10115;50.906;4.438;2022-11-14T05:45:47;3.50;99.90
19906;DHT22;10115;50.906;4.438;2022-11-14T05:48:14;3.50;99.90
19906;DHT22;10115;50.906;4.438;2022-11-14T05:50:39;3.50;99.90
19906;DHT22;10115;50.906;4.438;2022-11-14T05:53:05;3.70;99.90
19906;DHT22;10115;50.906;4.438;2022-11-14T05:55:31;3.70;99.90
19906;DHT22;10115;50.906;4.438;2022-11-14T05:57:58;3.90;99.90
19906;DHT22;10115;50.906;4.438;2022-11-14T06:00:27;4.10;99.90
19906;DHT22;10115;50.906;4.438;2022-11-14T06:02:56;4.20;99.90
19906;DHT22;10115;50.906;4.438;2022-11-14T06:05:22;4.20;99.90
19906;DHT22;10115;50.906;4.438;2022-11-14T06:07:54;4.20;99.90
19906;DHT22;10115;50.906;4.438;2022-11-14T06:10:20;4.20;99.90
19906;DHT22;10115;50.906;4.438;2022-11-14T06:12:50;4.10;99.90
19906;DHT22;10115;50.906;4.438;2022-11-14T06:15:16;4.20;99.90
19906;DHT22;10115;50.906;4.438;2022-11-14T06:17:45;4.10;99.90
19906;DHT22;10115;50.906;4.438;2022-11-14T06:20:13;4.10;99.90
19906;DHT22;10115;50.906;4.438;2022-11-14T06:22:42;4.00;99.90
19906;DHT22;10115;50.906;4.438;2022-11-14T06:25:09;4.00;99.90
19906;DHT22;10115;50.906;4.438;2022-11-14T06:27:38;3.90;99.90
19906;DHT22;10115;50.906;4.438;2022-11-14T06:30:03;3.90;99.90
19906;DHT22;10115;50.906;4.438;2022-11-14T06:32:32;3.90;99.90
19906;DHT22;10115;50.906;4.438;2022-11-14T06:34:58;3.80;99.90
19906;DHT22;10115;50.906;4.438;2022-11-14T06:37:29;3.80;99.90
19906;DHT22;10115;50.906;4.438;2022-11-14T06:39:56;3.80;99.90
19906;DHT22;10115;50.906;4.438;2022-11-14T06:42:21;3.70;99.90
19906;DHT22;10115;50.906;4.438;2022-11-14T06:44:47;3.60;99.90
19906;DHT22;10115;50.906;4.438;2022-11-14T06:47:12;3.60;99.90
19906;DHT22;10115;50.906;4.438;2022-11-14T06:49:38;3.60;99.90
19906;DHT22;10115;50.906;4.438;2022-11-14T06:52:04;3.60;99.90
19906;DHT22;10115;50.906;4.438;2022-11-14T06:54:29;3.60;99.90
19906;DHT22;10115;50.906;4.438;2022-11-14T06:57:01;3.70;99.90
19906;DHT22;10115;50.906;4.438;2022-11-14T06:59:27;3.70;99.90
19906;DHT22;10115;50.906;4.438;2022-11-14T07:01:55;3.70;99.90
19906;DHT22;10115;50.906;4.438;2022-11-14T07:04:21;3.70;99.90
19906;DHT22;10115;50.906;4.438;2022-11-14T07:06:47;3.70;99.90
19906;DHT22;10115;50.906;4.438;2022-11-14T07:12:44;3.70;99.90
19906;DHT22;10115;50.906;4.438;2022-11-14T07:15:09;3.70;99.90
19906;DHT22;10115;50.906;4.438;2022-11-14T07:17:35;3.70;99.90
19906;DHT22;10115;50.906;4.438;2022-11-14T07:20:01;3.70;99.90
19906;DHT22;10115;50.906;4.438;2022-11-14T07:22:32;3.70;99.90
19906;DHT22;10115;50.906;4.438;2022-11-14T07:24:58;3.70;99.90
19906;DHT22;10115;50.906;4.438;2022-11-14T07:27:23;3.70;99.90
19906;DHT22;10115;50.906;4.438;2022-11-14T07:29:52;3.80;99.90
19906;DHT22;10115;50.906;4.438;2022-11-14T07:32:18;3.80;99.90
19906;DHT22;10115;50.906;4.438;2022-11-14T07:34:44;3.90;99.90
19906;DHT22;10115;50.906;4.438;2022-11-14T07:37:12;4.10;99.90
19906;DHT22;10115;50.906;4.438;2022-11-14T07:39:38;4.10;99.90
19906;DHT22;10115;50.906;4.438;2022-11-14T07:42:04;4.40;99.90
19906;DHT22;10115;50.906;4.438;2022-11-14T07:44:29;4.70;99.90
19906;DHT22;10115;50.906;4.438;2022-11-14T07:46:58;4.80;99.90
19906;DHT22;10115;50.906;4.438;2022-11-14T07:49:24;5.10;99.90
19906;DHT22;10115;50.906;4.438;2022-11-14T07:51:49;5.20;99.90
19906;DHT22;10115;50.906;4.438;2022-11-14T07:54:15;5.20;99.90
19906;DHT22;10115;50.906;4.438;2022-11-14T07:56:41;5.20;99.90
19906;DHT22;10115;50.906;4.438;2022-11-14T07:59:10;5.40;99.90
19906;DHT22;10115;50.906;4.438;2022-11-14T08:01:35;5.40;99.90
19906;DHT22;10115;50.906;4.438;2022-11-14T08:04:01;5.60;99.90
19906;DHT22;10115;50.906;4.438;2022-11-14T08:06:27;5.90;99.90
19906;DHT22;10115;50.906;4.438;2022-11-14T08:08:55;5.70;99.90
19906;DHT22;10115;50.906;4.438;2022-11-14T08:11:21;5.60;99.90
19906;DHT22;10115;50.906;4.438;2022-11-14T08:14:07;5.70;99.90
19906;DHT22;10115;50.906;4.438;2022-11-14T08:16:33;5.90;99.90
19906;DHT22;10115;50.906;4.438;2022-11-14T08:18:59;5.90;99.90
19906;DHT22;10115;50.906;4.438;2022-11-14T08:21:24;6.00;99.90
19906;DHT22;10115;50.906;4.438;2022-11-14T08:23:52;6.20;99.90
19906;DHT22;10115;50.906;4.438;2022-11-14T08:26:18;6.20;99.90
19906;DHT22;10115;50.906;4.438;2022-11-14T08:28:44;6.20;99.90
19906;DHT22;10115;50.906;4.438;2022-11-14T08:31:11;6.10;99.90
19906;DHT22;10115;50.906;4.438;2022-11-14T08:33:41;6.00;99.90
19906;DHT22;10115;50.906;4.438;2022-11-14T08:36:08;6.00;99.90
19906;DHT22;10115;50.906;4.438;2022-11-14T08:38:34;6.00;99.90
19906;DHT22;10115;50.906;4.438;2022-11-14T08:41:03;6.00;99.90
19906;DHT22;10115;50.906;4.438;2022-11-14T08:43:30;6.10;99.90
19906;DHT22;10115;50.906;4.438;2022-11-14T08:46:00;6.20;99.90
19906;DHT22;10115;50.906;4.438;2022-11-14T08:48:27;6.30;99.90
19906;DHT22;10115;50.906;4.438;2022-11-14T08:50:56;6.40;99.90
19906;DHT22;10115;50.906;4.438;2022-11-14T08:53:25;6.50;99.90
19906;DHT22;10115;50.906;4.438;2022-11-14T08:55:51;6.70;99.90
19906;DHT22;10115;50.906;4.438;2022-11-14T08:58:16;6.80;99.90
19906;DHT22;10115;50.906;4.438;2022-11-14T09:00:42;7.00;99.90
19906;DHT22;10115;50.906;4.438;2022-11-14T09:03:11;7.00;99.90
19906;DHT22;10115;50.906;4.438;2022-11-14T09:05:49;7.20;99.90
19906;DHT22;10115;50.906;4.438;2022-11-14T09:08:15;7.20;99.90
19906;DHT22;10115;50.906;4.438;2022-11-14T09:10:40;7.40;99.90
19906;DHT22;10115;50.906;4.438;2022-11-14T09:13:09;7.50;99.90
19906;DHT22;10115;50.906;4.438;2022-11-14T09:15:35;7.50;99.90
19906;DHT22;10115;50.906;4.438;2022-11-14T09:18:00;7.40;99.90
19906;DHT22;10115;50.906;4.438;2022-11-14T09:20:26;7.50;99.90
19906;DHT22;10115;50.906;4.438;2022-11-14T09:22:59;7.50;99.90
19906;DHT22;10115;50.906;4.438;2022-11-14T09:25:26;7.50;99.90
19906;DHT22;10115;50.906;4.438;2022-11-14T09:27:55;7.70;99.90
19906;DHT22;10115;50.906;4.438;2022-11-14T09:30:30;7.70;99.90
19906;DHT22;10115;50.906;4.438;2022-11-14T09:32:59;7.80;99.90
19906;DHT22;10115;50.906;4.438;2022-11-14T09:35:26;7.80;99.90
19906;DHT22;10115;50.906;4.438;2022-11-14T09:37:59;7.80;99.90
19906;DHT22;10115;50.906;4.438;2022-11-14T09:40:25;8.10;99.90
19906;DHT22;10115;50.906;4.438;2022-11-14T09:45:26;8.10;99.90
19906;DHT22;10115;50.906;4.438;2022-11-14T09:47:59;8.20;99.90
19906;DHT22;10115;50.906;4.438;2022-11-14T09:50:29;8.30;99.90
19906;DHT22;10115;50.906;4.438;2022-11-14T09:53:11;8.30;99.90
19906;DHT22;10115;50.906;4.438;2022-11-14T09:55:44;8.30;99.90
19906;DHT22;10115;50.906;4.438;2022-11-14T09:58:19;8.30;99.90
19906;DHT22;10115;50.906;4.438;2022-11-14T10:01:05;8.30;99.90
19906;DHT22;10115;50.906;4.438;2022-11-14T10:03:58;8.30;99.90
19906;DHT22;10115;50.906;4.438;2022-11-14T10:12:44;8.50;99.90
19906;DHT22;10115;50.906;4.438;2022-11-14T10:20:57;8.40;99.90
19906;DHT22;10115;50.906;4.438;2022-11-14T10:23:50;8.50;99.90
19906;DHT22;10115;50.906;4.438;2022-11-14T10:26:29;8.60;99.90
19906;DHT22;10115;50.906;4.438;2022-11-14T10:41:58;8.90;99.90
19906;DHT22;10115;50.906;4.438;2022-11-14T10:44:33;9.00;99.90
19906;DHT22;10115;50.906;4.438;2022-11-14T10:47:03;8.90;99.90
19906;DHT22;10115;50.906;4.438;2022-11-14T10:49:32;8.80;99.90
19906;DHT22;10115;50.906;4.438;2022-11-14T10:52:03;8.80;99.90
19906;DHT22;10115;50.906;4.438;2022-11-14T10:54:45;8.90;99.90
19906;DHT22;10115;50.906;4.438;2022-11-14T10:57:18;8.80;99.90
19906;DHT22;10115;50.906;4.438;2022-11-14T10:59:43;8.80;99.90
19906;DHT22;10115;50.906;4.438;2022-11-14T11:02:09;8.80;99.90
19906;DHT22;10115;50.906;4.438;2022-11-14T11:04:37;8.90;99.90
19906;DHT22;10115;50.906;4.438;2022-11-14T11:09:59;9.00;99.90
19906;DHT22;10115;50.906;4.438;2022-11-14T11:12:49;8.90;99.90
19906;DHT22;10115;50.906;4.438;2022-11-14T11:15:19;9.10;99.90
19906;DHT22;10115;50.906;4.438;2022-11-14T11:17:54;9.10;99.90
19906;DHT22;10115;50.906;4.438;2022-11-14T11:20:35;9.20;99.90
19906;DHT22;10115;50.906;4.438;2022-11-14T11:23:10;9.40;99.90
19906;DHT22;10115;50.906;4.438;2022-11-14T11:25:40;9.50;99.90
19906;DHT22;10115;50.906;4.438;2022-11-14T11:28:12;9.50;99.90
19906;DHT22;10115;50.906;4.438;2022-11-14T11:30:39;9.60;99.90
19906;DHT22;10115;50.906;4.438;2022-11-14T11:35:41;9.70;99.90
19906;DHT22;10115;50.906;4.438;2022-11-14T11:38:08;9.60;99.90
19906;DHT22;10115;50.906;4.438;2022-11-14T11:40:36;9.80;99.90
19906;DHT22;10115;50.906;4.438;2022-11-14T11:43:15;9.90;99.90
19906;DHT22;10115;50.906;4.438;2022-11-14T11:45:45;9.80;99.90
19906;DHT22;10115;50.906;4.438;2022-11-14T11:48:20;9.90;99.90
19906;DHT22;10115;50.906;4.438;2022-11-14T11:50:46;10.00;99.90
19906;DHT22;10115;50.906;4.438;2022-11-14T11:54:02;10.10;99.90
19906;DHT22;10115;50.906;4.438;2022-11-14T11:56:30;10.00;99.90
19906;DHT22;10115;50.906;4.438;2022-11-14T12:01:51;9.70;99.90
19906;DHT22;10115;50.906;4.438;2022-11-14T12:04:16;9.90;99.90
19906;DHT22;10115;50.906;4.438;2022-11-14T12:06:53;9.90;99.90
19906;DHT22;10115;50.906;4.438;2022-11-14T12:09:28;9.70;99.90
19906;DHT22;10115;50.906;4.438;2022-11-14T12:12:04;9.60;99.90
19906;DHT22;10115;50.906;4.438;2022-11-14T12:25:24;9.20;99.90
19906;DHT22;10115;50.906;4.438;2022-11-14T12:30:45;8.90;99.90
19906;DHT22;10115;50.906;4.438;2022-11-14T12:33:36;8.70;99.90
19906;DHT22;10115;50.906;4.438;2022-11-14T12:36:08;8.70;99.90
19906;DHT22;10115;50.906;4.438;2022-11-14T12:38:48;8.40;99.90
19906;DHT22;10115;50.906;4.438;2022-11-14T12:41:41;8.40;99.90
19906;DHT22;10115;50.906;4.438;2022-11-14T12:52:47;8.20;99.90
19906;DHT22;10115;50.906;4.438;2022-11-14T12:58:08;7.70;99.90
19906;DHT22;10115;50.906;4.438;2022-11-14T13:01:19;7.40;99.90
19906;DHT22;10115;50.906;4.438;2022-11-14T13:09:52;7.40;99.90
19906;DHT22;10115;50.906;4.438;2022-11-14T13:18:16;7.00;99.90
19906;DHT22;10115;50.906;4.438;2022-11-14T13:21:27;7.20;99.90
19906;DHT22;10115;50.906;4.438;2022-11-14T13:26:40;7.50;99.90
19906;DHT22;10115;50.906;4.438;2022-11-14T13:29:06;7.50;99.90
19906;DHT22;10115;50.906;4.438;2022-11-14T13:37:03;7.40;99.90
19906;DHT22;10115;50.906;4.438;2022-11-14T13:39:55;7.10;99.90
19906;DHT22;10115;50.906;4.438;2022-11-14T13:50:47;7.00;99.90
19906;DHT22;10115;50.906;4.438;2022-11-14T13:53:23;7.20;99.90
19906;DHT22;10115;50.906;4.438;2022-11-14T13:55:58;7.40;99.90
19906;DHT22;10115;50.906;4.438;2022-11-14T14:01:34;7.00;99.90
19906;DHT22;10115;50.906;4.438;2022-11-14T14:04:31;6.80;99.90
19906;DHT22;10115;50.906;4.438;2022-11-14T14:15:13;6.90;99.90
19906;DHT22;10115;50.906;4.438;2022-11-14T14:23:12;6.80;99.90
19906;DHT22;10115;50.906;4.438;2022-11-14T14:28:21;6.80;99.90
19906;DHT22;10115;50.906;4.438;2022-11-14T14:31:21;6.80;99.90
19906;DHT22;10115;50.906;4.438;2022-11-14T14:33:49;7.00;99.90
19906;DHT22;10115;50.906;4.438;2022-11-14T14:36:22;7.10;99.90
19906;DHT22;10115;50.906;4.438;2022-11-14T14:38:49;7.10;99.90
19906;DHT22;10115;50.906;4.438;2022-11-14T14:41:18;7.00;99.90
19906;DHT22;10115;50.906;4.438;2022-11-14T14:43:53;7.00;99.90
19906;DHT22;10115;50.906;4.438;2022-11-14T14:46:29;7.00;99.90
19906;DHT22;10115;50.906;4.438;2022-11-14T14:48:57;7.00;99.90
19906;DHT22;10115;50.906;4.438;2022-11-14T14:51:35;7.00;99.90
19906;DHT22;10115;50.906;4.438;2022-11-14T14:54:03;7.00;99.90
19906;DHT22;10115;50.906;4.438;2022-11-14T14:56:29;7.20;99.90
19906;DHT22;10115;50.906;4.438;2022-11-14T14:58:54;7.20;99.90
19906;DHT22;10115;50.906;4.438;2022-11-14T15:01:31;7.20;99.90
19906;DHT22;10115;50.906;4.438;2022-11-14T15:04:07;7.40;99.90
19906;DHT22;10115;50.906;4.438;2022-11-14T15:06:37;7.40;99.90
19906;DHT22;10115;50.906;4.438;2022-11-14T15:09:10;7.30;99.90
19906;DHT22;10115;50.906;4.438;2022-11-14T15:11:41;7.20;99.90
19906;DHT22;10115;50.906;4.438;2022-11-14T15:14:13;7.30;99.90
19906;DHT22;10115;50.906;4.438;2022-11-14T15:16:39;7.40;99.90
19906;DHT22;10115;50.906;4.438;2022-11-14T15:19:05;7.70;99.90
19906;DHT22;10115;50.906;4.438;2022-11-14T15:21:36;7.70;99.90
19906;DHT22;10115;50.906;4.438;2022-11-14T15:24:22;7.50;99.90
19906;DHT22;10115;50.906;4.438;2022-11-14T15:26:49;7.60;99.90
19906;DHT22;10115;50.906;4.438;2022-11-14T15:29:21;7.70;99.90
19906;DHT22;10115;50.906;4.438;2022-11-14T15:31:56;7.70;99.90
19906;DHT22;10115;50.906;4.438;2022-11-14T15:39:35;7.50;99.90
19906;DHT22;10115;50.906;4.438;2022-11-14T15:44:49;7.20;99.90
19906;DHT22;10115;50.906;4.438;2022-11-14T15:47:24;7.30;99.90
19906;DHT22;10115;50.906;4.438;2022-11-14T15:49:58;7.30;99.90
19906;DHT22;10115;50.906;4.438;2022-11-14T15:52:27;7.30;99.90
19906;DHT22;10115;50.906;4.438;2022-11-14T15:54:55;7.30;99.90
19906;DHT22;10115;50.906;4.438;2022-11-14T15:57:24;7.50;99.90
19906;DHT22;10115;50.906;4.438;2022-11-14T15:59:49;7.80;99.90
19906;DHT22;10115;50.906;4.438;2022-11-14T16:02:27;7.70;99.90
19906;DHT22;10115;50.906;4.438;2022-11-14T16:04:54;7.70;99.90
19906;DHT22;10115;50.906;4.438;2022-11-14T16:07:21;7.70;99.90
19906;DHT22;10115;50.906;4.438;2022-11-14T16:09:47;7.80;99.90
19906;DHT22;10115;50.906;4.438;2022-11-14T16:12:13;7.60;99.90
19906;DHT22;10115;50.906;4.438;2022-11-14T16:14:39;7.60;99.90
19906;DHT22;10115;50.906;4.438;2022-11-14T16:17:15;7.60;99.90
19906;DHT22;10115;50.906;4.438;2022-11-14T16:19:44;7.60;99.90
19906;DHT22;10115;50.906;4.438;2022-11-14T16:22:16;7.50;99.90
19906;DHT22;10115;50.906;4.438;2022-11-14T16:24:42;7.50;99.90
19906;DHT22;10115;50.906;4.438;2022-11-14T16:27:08;7.50;99.90
19906;DHT22;10115;50.906;4.438;2022-11-14T16:29:34;7.50;99.90
19906;DHT22;10115;50.906;4.438;2022-11-14T16:32:00;7.40;99.90
19906;DHT22;10115;50.906;4.438;2022-11-14T16:34:26;7.50;99.90
19906;DHT22;10115;50.906;4.438;2022-11-14T16:37:01;7.50;99.90
19906;DHT22;10115;50.906;4.438;2022-11-14T16:39:28;7.50;99.90
19906;DHT22;10115;50.906;4.438;2022-11-14T16:41:59;7.60;99.90
19906;DHT22;10115;50.906;4.438;2022-11-14T16:44:26;7.70;99.90
19906;DHT22;10115;50.906;4.438;2022-11-14T16:46:55;7.60;99.90
19906;DHT22;10115;50.906;4.438;2022-11-14T16:49:21;7.80;99.90
19906;DHT22;10115;50.906;4.438;2022-11-14T16:51:48;7.80;99.90
19906;DHT22;10115;50.906;4.438;2022-11-14T16:54:15;7.70;99.90
19906;DHT22;10115;50.906;4.438;2022-11-14T16:56:41;7.60;99.90
19906;DHT22;10115;50.906;4.438;2022-11-14T16:59:08;7.60;99.90
19906;DHT22;10115;50.906;4.438;2022-11-14T17:01:37;7.60;99.90
19906;DHT22;10115;50.906;4.438;2022-11-14T17:04:04;7.70;99.90
19906;DHT22;10115;50.906;4.438;2022-11-14T17:06:29;7.70;99.90
19906;DHT22;10115;50.906;4.438;2022-11-14T17:08:56;7.60;99.90
19906;DHT22;10115;50.906;4.438;2022-11-14T17:11:22;7.50;99.90
19906;DHT22;10115;50.906;4.438;2022-11-14T17:13:48;7.60;99.90
19906;DHT22;10115;50.906;4.438;2022-11-14T17:16:14;7.60;99.90
19906;DHT22;10115;50.906;4.438;2022-11-14T17:18:40;7.60;99.90
19906;DHT22;10115;50.906;4.438;2022-11-14T17:21:06;7.80;99.90
19906;DHT22;10115;50.906;4.438;2022-11-14T17:23:32;7.80;99.90
19906;DHT22;10115;50.906;4.438;2022-11-14T17:26:05;8.00;99.90
19906;DHT22;10115;50.906;4.438;2022-11-14T17:28:33;8.00;99.90
19906;DHT22;10115;50.906;4.438;2022-11-14T17:30:59;7.90;99.90
19906;DHT22;10115;50.906;4.438;2022-11-14T17:33:29;7.90;99.90
19906;DHT22;10115;50.906;4.438;2022-11-14T17:36:13;7.80;99.90
19906;DHT22;10115;50.906;4.438;2022-11-14T17:38:42;7.80;99.90
19906;DHT22;10115;50.906;4.438;2022-11-14T17:41:07;7.80;99.90
19906;DHT22;10115;50.906;4.438;2022-11-14T17:43:34;7.70;99.90
19906;DHT22;10115;50.906;4.438;2022-11-14T17:46:00;7.70;99.90
19906;DHT22;10115;50.906;4.438;2022-11-14T17:48:26;7.80;99.90
19906;DHT22;10115;50.906;4.438;2022-11-14T17:50:55;7.90;99.90
19906;DHT22;10115;50.906;4.438;2022-11-14T17:53:21;7.90;99.90
19906;DHT22;10115;50.906;4.438;2022-11-14T17:55:54;8.10;99.90
19906;DHT22;10115;50.906;4.438;2022-11-14T17:58:20;8.00;99.90